createdAt,value
2023-01-06T00:01:28.111Z,97209.14
2023-01-06T00:03:58.751Z,97208.33
2023-01-06T00:06:30.460Z,97209.42
2023-01-06T00:09:02.583Z,97212.33
2023-01-06T00:11:31.770Z,97216.89
2023-01-06T00:14:00.121Z,97213.43
2023-01-06T00:16:28.351Z,97216.89
2023-01-06T00:18:58.028Z,97226.24
2023-01-06T00:21:26.738Z,97227.84
2023-01-06T00:23:54.835Z,97232.09
2023-01-06T00:26:23.251Z,97231.30
2023-01-06T00:28:56.304Z,97237.98
2023-01-06T00:31:26.015Z,97224.07
2023-01-06T00:33:57.060Z,97238.77
2023-01-06T00:36:25.095Z,97241.73
2023-01-06T00:38:52.924Z,97238.59
2023-01-06T00:41:40.117Z,97237.25
2023-01-06T00:44:08.096Z,97246.89
2023-01-06T00:46:35.928Z,97250.70
2023-01-06T00:49:06.704Z,97257.70
2023-01-06T00:51:38.436Z,97257.98
2023-01-06T00:54:09.985Z,97261.21
2023-01-06T00:56:41.897Z,97271.11
2023-01-06T00:59:12.422Z,97278.11
2023-01-06T01:01:42.016Z,97260.78
2023-01-06T01:04:10.685Z,97256.83
2023-01-06T01:06:40.724Z,97269.16
2023-01-06T01:09:12.027Z,97271.33
2023-01-06T01:11:58.626Z,97283.91
2023-01-06T01:14:26.607Z,97285.28
2023-01-06T01:16:54.573Z,97296.59
2023-01-06T01:19:23.717Z,97304.89
2023-01-06T01:21:51.653Z,97303.59
2023-01-06T01:24:20.437Z,97319.14
2023-01-06T01:26:48.308Z,97322.95
2023-01-06T01:29:18.633Z,97331.52
2023-01-06T01:31:47.174Z,97338.72
2023-01-06T01:34:16.640Z,97328.89
2023-01-06T01:36:47.321Z,97331.05
2023-01-06T01:39:17.754Z,97331.09
2023-01-06T01:41:46.093Z,97337.77
2023-01-06T01:44:54.646Z,97336.44
2023-01-06T01:47:30.615Z,97337.50
2023-01-06T01:50:10.024Z,97329.25
2023-01-06T01:52:39.221Z,97335.69
2023-01-06T01:55:09.525Z,97341.86
2023-01-06T01:57:42.856Z,97345.08
2023-01-06T02:00:11.481Z,97352.84
2023-01-06T02:02:43.030Z,97349.91
2023-01-06T02:05:18.748Z,97344.33
2023-01-06T02:07:47.923Z,97345.12
2023-01-06T02:10:22.296Z,97349.67
2023-01-06T02:12:56.053Z,97338.51
2023-01-06T02:15:30.637Z,97344.64
2023-01-06T02:18:26.925Z,97356.66
2023-01-06T02:21:29.676Z,97357.72
2023-01-06T02:24:26.722Z,97352.69
2023-01-06T02:27:03.078Z,97350.05
2023-01-06T02:29:51.429Z,97349.03
2023-01-06T02:32:41.292Z,97357.59
2023-01-06T02:35:48.065Z,97367.21
2023-01-06T02:38:39.505Z,97368.58
2023-01-06T02:41:43.075Z,97365.20
2023-01-06T02:44:31.513Z,97362.05
2023-01-06T02:47:15.929Z,97369.31
2023-01-06T02:50:17.054Z,97360.58
2023-01-06T02:52:56.723Z,97379.30
2023-01-06T02:55:44.189Z,97377.21
2023-01-06T02:58:41.707Z,97385.25
2023-01-06T03:01:32.200Z,97373.55
2023-01-06T03:04:06.002Z,97375.70
2023-01-06T03:06:36.833Z,97384.02
2023-01-06T03:09:05.929Z,97381.90
2023-01-06T03:11:36.463Z,97390.72
2023-01-06T03:14:18.590Z,97394.48
2023-01-06T03:16:46.620Z,97387.27
2023-01-06T03:19:15.371Z,97393.39
2023-01-06T03:21:45.899Z,97400.30
2023-01-06T03:24:14.280Z,97393.09
2023-01-06T03:26:45.384Z,97400.58
2023-01-06T03:29:17.955Z,97399.48
2023-01-06T03:31:57.423Z,97402.42
2023-01-06T03:34:54.880Z,97398.73
2023-01-06T03:37:31.850Z,97408.62
2023-01-06T03:40:26.574Z,97406.22
2023-01-06T03:43:18.257Z,97408.89
2023-01-06T03:46:19.594Z,97410.83
2023-01-06T03:48:59.174Z,97424.20
2023-01-06T03:51:57.021Z,97417.87
2023-01-06T03:54:54.250Z,97429.66
2023-01-06T03:57:34.821Z,97433.70
2023-01-06T04:00:09.670Z,97437.19
2023-01-06T04:02:46.455Z,97439.06
2023-01-06T04:05:22.841Z,97432.39
2023-01-06T04:07:51.200Z,97432.16
2023-01-06T04:10:22.175Z,97435.36
2023-01-06T04:12:52.025Z,97427.15
2023-01-06T04:15:25.329Z,97427.97
2023-01-06T04:17:54.284Z,97432.27
2023-01-06T04:20:26.240Z,97439.20
2023-01-06T04:22:57.631Z,97447.52
2023-01-06T04:25:25.946Z,97443.55
2023-01-06T04:27:54.049Z,97445.72
2023-01-06T04:30:22.219Z,97445.72
2023-01-06T04:32:50.236Z,97442.53
2023-01-06T04:35:18.074Z,97448.17
2023-01-06T04:37:46.145Z,97460.96
2023-01-06T04:40:13.958Z,97476.45
2023-01-06T04:42:59.882Z,97474.08
2023-01-06T04:45:27.602Z,97486.34
2023-01-06T04:47:55.528Z,97494.37
2023-01-06T04:50:26.456Z,97493.04
2023-01-06T04:52:54.289Z,97503.19
2023-01-06T04:55:22.047Z,97501.86
2023-01-06T04:57:50.038Z,97505.03
2023-01-06T05:00:18.989Z,97514.65
2023-01-06T05:02:47.743Z,97513.86
2023-01-06T05:05:16.876Z,97518.34
2023-01-06T05:07:44.941Z,97525.53
2023-01-06T05:10:12.751Z,97526.02
2023-01-06T05:12:40.699Z,97528.69
2023-01-06T05:15:11.056Z,97536.45
2023-01-06T05:17:38.802Z,97542.30
2023-01-06T05:20:07.386Z,97543.09
2023-01-06T05:22:35.258Z,97544.42
2023-01-06T05:25:03.695Z,97553.22
2023-01-06T05:27:31.629Z,97552.91
2023-01-06T05:29:59.604Z,97563.86
2023-01-06T05:32:27.368Z,97567.56
2023-01-06T05:34:55.260Z,97565.14
2023-01-06T05:37:23.401Z,97559.80
2023-01-06T05:39:51.072Z,97549.95
2023-01-06T05:42:19.139Z,97559.30
2023-01-06T05:44:47.020Z,97556.63
2023-01-06T05:47:14.885Z,97561.14
2023-01-06T05:49:42.578Z,97559.06
2023-01-06T05:52:10.525Z,97569.76
2023-01-06T05:54:38.631Z,97569.52
2023-01-06T05:57:09.235Z,97569.02
2023-01-06T05:59:37.055Z,97587.19
2023-01-06T06:02:05.093Z,97592.02
2023-01-06T06:04:33.035Z,97596.34
2023-01-06T06:07:00.796Z,97590.78
2023-01-06T06:09:28.651Z,97592.42
2023-01-06T06:11:56.561Z,97589.28
2023-01-06T06:14:26.112Z,97601.31
2023-01-06T06:16:55.134Z,97608.05
2023-01-06T06:19:22.980Z,97608.08
2023-01-06T06:21:50.712Z,97616.13
2023-01-06T06:24:18.612Z,97618.26
2023-01-06T06:26:46.537Z,97624.94
2023-01-06T06:29:14.609Z,97631.34
2023-01-06T06:31:43.729Z,97634.03
2023-01-06T06:34:13.324Z,97641.52
2023-01-06T06:36:41.037Z,97640.19
2023-01-06T06:39:09.032Z,97644.45
2023-01-06T06:41:37.161Z,97648.05
2023-01-06T06:44:05.320Z,97644.06
2023-01-06T06:46:33.258Z,97641.75
2023-01-06T06:49:01.115Z,97648.23
2023-01-06T06:51:31.179Z,97650.19
2023-01-06T06:53:58.994Z,97653.19
2023-01-06T06:56:26.871Z,97660.16
2023-01-06T06:58:54.497Z,97658.88
2023-01-06T07:01:22.719Z,97676.51
2023-01-06T07:03:50.475Z,97686.94
2023-01-06T07:06:31.199Z,97688.01
2023-01-06T07:08:59.233Z,97681.53
2023-01-06T07:11:26.933Z,97690.14
2023-01-06T07:13:55.405Z,97693.17
2023-01-06T07:16:24.734Z,97701.70
2023-01-06T07:18:53.115Z,97709.37
2023-01-06T07:21:20.932Z,97714.76
2023-01-06T07:23:48.798Z,97710.26
2023-01-06T07:26:16.567Z,97713.77
2023-01-06T07:28:46.284Z,97706.13
2023-01-06T07:31:14.439Z,97712.38
2023-01-06T07:33:42.414Z,97719.28
2023-01-06T07:36:10.217Z,97726.55
2023-01-06T07:38:38.292Z,97736.18
2023-01-06T07:41:06.375Z,97733.41
2023-01-06T07:43:37.679Z,97733.78
2023-01-06T07:46:07.162Z,97737.03
2023-01-06T07:48:35.042Z,97738.48
2023-01-06T07:51:03.081Z,97734.63
2023-01-06T07:53:34.038Z,97744.27
2023-01-06T07:56:02.079Z,97750.64
2023-01-06T07:58:30.052Z,97753.02
2023-01-06T08:00:57.858Z,97748.72
2023-01-06T08:03:28.870Z,97753.86
2023-01-06T08:05:56.838Z,97754.02
2023-01-06T08:08:31.991Z,97754.12
2023-01-06T08:11:15.009Z,97759.31
2023-01-06T08:13:46.752Z,97769.01
2023-01-06T08:16:15.052Z,97771.00
2023-01-06T08:18:44.942Z,97769.21
2023-01-06T08:21:18.042Z,97775.66
2023-01-06T08:23:51.415Z,97782.84
2023-01-06T08:26:19.503Z,97791.13
2023-01-06T08:28:47.822Z,97795.93
2023-01-06T08:31:21.279Z,97800.72
2023-01-06T08:33:51.418Z,97801.20
2023-01-06T08:36:23.509Z,97808.40
2023-01-06T08:38:53.955Z,97815.62
2023-01-06T08:41:53.800Z,97815.05
2023-01-06T08:44:07.579Z,97816.32
2023-01-06T08:46:35.847Z,97818.43
2023-01-06T08:49:04.674Z,97824.56
2023-01-06T08:51:37.930Z,97828.91
2023-01-06T08:54:10.429Z,97828.59
2023-01-06T08:56:39.696Z,97832.87
2023-01-06T08:59:09.687Z,97839.23
2023-01-06T09:01:43.126Z,97845.48
2023-01-06T09:04:12.382Z,97849.21
2023-01-06T09:06:43.357Z,97850.82
2023-01-06T09:09:11.740Z,97834.42
2023-01-06T09:11:44.473Z,97841.24
2023-01-06T09:14:15.302Z,97842.63
2023-01-06T09:16:47.863Z,97834.63
2023-01-06T09:19:20.160Z,97838.28
2023-01-06T09:21:50.315Z,97841.25
2023-01-06T09:24:20.032Z,97839.13
2023-01-06T09:26:50.790Z,97841.22
2023-01-06T09:29:19.736Z,97843.09
2023-01-06T09:31:47.622Z,97848.02
2023-01-06T09:34:16.022Z,97841.25
2023-01-06T09:36:44.495Z,97850.20
2023-01-06T09:39:12.622Z,97848.86
2023-01-06T09:42:00.429Z,97847.72
2023-01-06T09:44:44.293Z,97848.51
2023-01-06T09:47:21.818Z,97848.54
2023-01-06T09:50:02.535Z,97843.48
2023-01-06T09:52:44.783Z,97844.92
2023-01-06T09:55:18.762Z,97849.52
2023-01-06T09:58:06.456Z,97853.91
2023-01-06T10:00:44.521Z,97854.00
2023-01-06T10:03:20.065Z,97857.81
2023-01-06T10:06:30.360Z,97860.48
2023-01-06T10:09:30.052Z,97864.84
2023-01-06T10:12:16.910Z,97859.21
2023-01-06T10:15:30.915Z,97857.02
2023-01-06T10:18:55.049Z,97849.07
2023-01-06T10:21:47.459Z,97848.02
2023-01-06T10:24:51.556Z,97843.75
2023-01-06T10:27:51.825Z,97839.77
2023-01-06T10:30:46.196Z,97842.35
2023-01-06T10:33:28.247Z,97848.78
2023-01-06T10:35:58.947Z,97852.75
2023-01-06T10:38:44.150Z,97856.58
2023-01-06T10:41:26.668Z,97858.48
2023-01-06T10:43:54.816Z,97866.92
2023-01-06T10:46:23.817Z,97872.20
2023-01-06T10:48:55.075Z,97874.80
2023-01-06T10:51:44.333Z,97888.30
2023-01-06T10:54:17.933Z,97880.41
2023-01-06T10:57:05.044Z,97881.34
2023-01-06T10:59:33.204Z,97867.00
2023-01-06T11:02:03.245Z,97862.64
2023-01-06T11:04:31.425Z,97860.06
2023-01-06T11:07:03.777Z,97861.58
2023-01-06T11:09:44.718Z,97864.12
2023-01-06T11:12:23.351Z,97869.56
2023-01-06T11:15:05.330Z,97870.70
2023-01-06T11:17:39.306Z,97866.02
2023-01-06T11:20:21.609Z,97868.30
2023-01-06T11:22:52.487Z,97872.98
2023-01-06T11:25:32.847Z,97872.50
2023-01-06T11:28:19.889Z,97878.64
2023-01-06T11:30:53.887Z,97870.09
2023-01-06T11:33:25.872Z,97868.45
2023-01-06T11:35:55.223Z,97875.14
2023-01-06T11:38:24.208Z,97872.98
2023-01-06T11:40:54.263Z,97869.22
2023-01-06T11:43:28.112Z,97872.50
2023-01-06T11:46:03.602Z,97868.84
2023-01-06T11:48:39.551Z,97873.22
2023-01-06T11:51:13.296Z,97874.61
2023-01-06T11:54:02.134Z,97875.22
2023-01-06T11:56:37.260Z,97871.75
2023-01-06T11:59:26.440Z,97869.63
2023-01-06T12:02:28.559Z,97868.55
2023-01-06T12:05:03.027Z,97872.30
2023-01-06T12:07:52.953Z,97870.94
2023-01-06T12:10:29.241Z,97869.32
2023-01-06T12:12:57.904Z,97869.30
2023-01-06T12:15:35.493Z,97869.08
2023-01-06T12:18:11.670Z,97871.20
2023-01-06T12:20:45.244Z,97872.52
2023-01-06T12:23:38.631Z,97871.97
2023-01-06T12:26:47.707Z,97876.20
2023-01-06T12:29:21.411Z,97872.38
2023-01-06T12:32:16.566Z,97862.89
2023-01-06T12:34:49.251Z,97855.32
2023-01-06T12:37:43.689Z,97840.33
2023-01-06T12:40:33.585Z,97845.31
2023-01-06T12:43:19.997Z,97845.46
2023-01-06T12:46:02.525Z,97844.55
2023-01-06T12:48:56.026Z,97852.30
2023-01-06T12:51:47.127Z,97855.52
2023-01-06T12:54:32.753Z,97856.10
2023-01-06T12:57:19.123Z,97861.25
2023-01-06T13:00:07.895Z,97855.34
2023-01-06T13:02:53.092Z,97851.70
2023-01-06T13:05:35.995Z,97848.51
2023-01-06T13:08:28.714Z,97847.44
2023-01-06T13:11:08.102Z,97840.54
2023-01-06T13:14:10.761Z,97849.15
2023-01-06T13:17:07.372Z,97854.47
2023-01-06T13:19:53.009Z,97859.41
2023-01-06T13:22:43.626Z,97864.30
2023-01-06T13:25:59.980Z,97863.27
2023-01-06T13:31:47.682Z,97866.78
2023-01-06T13:34:51.408Z,97873.31
2023-01-06T13:37:35.716Z,97868.55
2023-01-06T13:40:24.366Z,97866.75
2023-01-06T13:43:18.899Z,97871.83
2023-01-06T13:45:54.133Z,97873.46
2023-01-06T13:48:34.433Z,97876.16
2023-01-06T13:51:23.935Z,97872.72
2023-01-06T13:54:13.238Z,97866.64
2023-01-06T13:57:29.994Z,97875.02
2023-01-06T14:00:52.884Z,97869.73
2023-01-06T14:03:25.420Z,97874.67
2023-01-06T14:05:56.310Z,97882.19
2023-01-06T14:08:33.358Z,97887.84
2023-01-06T14:11:06.935Z,97896.17
2023-01-06T14:14:08.238Z,97891.68
2023-01-06T14:17:06.318Z,97899.23
2023-01-06T14:19:47.152Z,97886.38
2023-01-06T14:22:24.366Z,97906.88
2023-01-06T14:25:02.465Z,97914.17
2023-01-06T14:27:54.395Z,97914.48
2023-01-06T14:30:48.418Z,97910.55
2023-01-06T14:33:38.519Z,97919.98
2023-01-06T14:36:15.333Z,97920.83
2023-01-06T14:39:07.456Z,97920.60
2023-01-06T14:42:13.156Z,97920.91
2023-01-06T14:48:28.417Z,97934.31
2023-01-06T14:51:22.348Z,97938.62
2023-01-06T14:54:05.652Z,97941.05
2023-01-06T14:56:41.276Z,97940.84
2023-01-06T15:01:07.460Z,97938.22
2023-01-06T15:02:19.828Z,97940.90
2023-01-06T15:04:52.033Z,97957.72
2023-01-06T15:07:22.502Z,97958.81
2023-01-06T15:09:51.674Z,97962.55
2023-01-06T15:12:34.845Z,97966.55
2023-01-06T15:15:29.355Z,97969.76
2023-01-06T15:18:02.350Z,97973.25
2023-01-06T15:23:51.172Z,97981.28
2023-01-06T15:26:28.831Z,97993.27
2023-01-06T15:29:04.340Z,97993.27
2023-01-06T15:31:33.919Z,97995.42
2023-01-06T15:34:09.947Z,98002.08
2023-01-06T15:36:44.593Z,98002.90
2023-01-06T15:39:19.392Z,98003.97
2023-01-06T15:41:48.439Z,98007.70
2023-01-06T15:44:33.193Z,98009.03
2023-01-06T15:47:36.229Z,98014.36
2023-01-06T15:50:08.479Z,98021.30
2023-01-06T15:52:50.801Z,98019.44
2023-01-06T15:55:31.351Z,98014.91
2023-01-06T15:58:20.081Z,98023.97
2023-01-06T16:01:15.568Z,98021.33
2023-01-06T16:03:52.828Z,98026.64
2023-01-06T16:06:42.037Z,98023.20
2023-01-06T16:09:32.810Z,98027.43
2023-01-06T16:12:19.589Z,98032.78
2023-01-06T16:14:51.913Z,98031.97
2023-01-06T16:17:33.084Z,98032.24
2023-01-06T16:20:15.130Z,98033.55
2023-01-06T16:22:52.256Z,98044.47
2023-01-06T16:25:33.294Z,98052.72
2023-01-06T16:28:05.261Z,98054.82
2023-01-06T16:30:37.781Z,98058.83
2023-01-06T16:33:06.304Z,98064.94
2023-01-06T16:35:36.977Z,98065.47
2023-01-06T16:38:07.856Z,98068.39
2023-01-06T16:43:39.440Z,98067.34
2023-01-06T16:46:26.598Z,98067.86
2023-01-06T16:48:59.261Z,98069.45
2023-01-06T16:51:32.178Z,98067.59
2023-01-06T16:54:00.552Z,98067.82
2023-01-06T16:56:30.435Z,98058.51
2023-01-06T16:58:58.552Z,98061.67
2023-01-06T17:01:31.132Z,98058.47
2023-01-06T17:04:11.963Z,98060.59
2023-01-06T17:06:43.843Z,98051.22
2023-01-06T17:09:20.565Z,98058.89
2023-01-06T17:11:52.523Z,98064.64
2023-01-06T17:14:23.506Z,98069.38
2023-01-06T17:16:53.654Z,98068.78
2023-01-06T17:19:26.510Z,98064.73
2023-01-06T17:22:24.161Z,98073.72
2023-01-06T17:24:52.314Z,98072.02
2023-01-06T17:27:26.113Z,98083.68
2023-01-06T17:29:55.066Z,98082.06
2023-01-06T17:32:28.400Z,98079.11
2023-01-06T17:34:58.368Z,98074.02
2023-01-06T17:37:29.722Z,98078.23
2023-01-06T17:39:57.909Z,98081.39
2023-01-06T17:42:31.573Z,98083.98
2023-01-06T17:45:00.652Z,98090.34
2023-01-06T17:47:36.824Z,98090.55
2023-01-06T17:50:31.921Z,98093.73
2023-01-06T17:53:32.917Z,98097.42
2023-01-06T17:56:05.683Z,98092.08
2023-01-06T17:58:37.790Z,98092.28
2023-01-06T18:01:21.584Z,98094.09
2023-01-06T18:03:52.123Z,98096.72
2023-01-06T18:06:30.706Z,98089.52
2023-01-06T18:09:15.068Z,98100.63
2023-01-06T18:11:47.611Z,98103.81
2023-01-06T18:14:26.679Z,98114.15
2023-01-06T18:16:56.940Z,98114.11
2023-01-06T18:19:30.465Z,98122.00
2023-01-06T18:22:01.501Z,98121.16
2023-01-06T18:24:36.324Z,98118.73
2023-01-06T18:27:14.651Z,98121.38
2023-01-06T18:29:44.499Z,98115.55
2023-01-06T18:32:33.008Z,98113.16
2023-01-06T18:35:21.129Z,98108.35
2023-01-06T18:37:49.725Z,98108.31
2023-01-06T18:40:24.249Z,98104.03
2023-01-06T18:42:54.006Z,98109.10
2023-01-06T18:45:34.887Z,98102.70
2023-01-06T18:48:13.826Z,98102.13
2023-01-06T18:50:45.222Z,98108.98
2023-01-06T18:53:24.446Z,98102.35
2023-01-06T18:56:04.885Z,98102.05
2023-01-06T18:58:46.876Z,98104.40
2023-01-06T19:01:25.158Z,98102.80
2023-01-06T19:04:01.581Z,98106.78
2023-01-06T19:06:54.695Z,98111.55
2023-01-06T19:09:46.269Z,98105.72
2023-01-06T19:12:35.704Z,98112.03
2023-01-06T19:15:25.703Z,98119.45
2023-01-06T19:17:54.483Z,98128.47
2023-01-06T19:20:27.508Z,98132.22
2023-01-06T19:22:56.489Z,98136.70
2023-01-06T19:25:43.883Z,98143.36
2023-01-06T19:28:33.573Z,98143.92
2023-01-06T19:31:04.419Z,98135.72
2023-01-06T19:33:44.065Z,98131.47
2023-01-06T19:36:19.983Z,98123.27
2023-01-06T19:38:48.790Z,98112.39
2023-01-06T19:41:30.050Z,98106.47
2023-01-06T19:44:09.509Z,98106.13
2023-01-06T19:46:44.729Z,98091.98
2023-01-06T19:49:24.099Z,98086.13
2023-01-06T19:51:57.685Z,98101.30
2023-01-06T19:54:34.645Z,98107.19
2023-01-06T19:57:08.049Z,98125.52
2023-01-06T19:59:36.149Z,98132.98
2023-01-06T20:02:19.195Z,98135.41
2023-01-06T20:04:47.601Z,98137.05
2023-01-06T20:07:15.352Z,98141.33
2023-01-06T20:09:42.969Z,98139.25
2023-01-06T20:12:14.013Z,98138.98
2023-01-06T20:14:41.998Z,98128.87
2023-01-06T20:17:09.976Z,98127.55
2023-01-06T20:19:37.633Z,98134.47
2023-01-06T20:22:06.102Z,98133.86
2023-01-06T20:24:34.619Z,98132.53
2023-01-06T20:27:02.211Z,98146.54
2023-01-06T20:29:31.829Z,98156.83
2023-01-06T20:31:59.731Z,98162.09
2023-01-06T20:34:28.210Z,98168.19
2023-01-06T20:37:02.008Z,98166.63
2023-01-06T20:39:33.035Z,98165.84
2023-01-06T20:42:03.130Z,98168.02
2023-01-06T20:44:31.253Z,98172.30
2023-01-06T20:46:59.210Z,98177.41
2023-01-06T20:49:27.587Z,98175.83
2023-01-06T20:51:55.136Z,98175.83
2023-01-06T20:54:26.421Z,98176.59
2023-01-06T20:56:54.564Z,98173.92
2023-01-06T20:59:22.942Z,98176.05
2023-01-06T21:01:53.813Z,98177.91
2023-01-06T21:04:22.376Z,98176.62
2023-01-06T21:06:50.186Z,98174.25
2023-01-06T21:09:21.224Z,98178.73
2023-01-06T21:11:50.748Z,98172.60
2023-01-06T21:14:18.482Z,98172.38
2023-01-06T21:16:46.075Z,98164.97
2023-01-06T21:19:14.495Z,98172.65
2023-01-06T21:21:42.636Z,98176.14
2023-01-06T21:24:12.040Z,98181.19
2023-01-06T21:26:41.162Z,98184.67
2023-01-06T21:29:11.894Z,98186.87
2023-01-06T21:31:40.481Z,98203.09
2023-01-06T21:34:08.123Z,98201.02
2023-01-06T21:36:36.021Z,98201.59
2023-01-06T21:39:10.111Z,98203.71
2023-01-06T21:41:56.450Z,98210.91
2023-01-06T21:44:27.339Z,98216.48
2023-01-06T21:46:57.173Z,98209.63
2023-01-06T21:49:24.884Z,98205.92
2023-01-06T21:51:55.239Z,98215.28
2023-01-06T21:54:23.780Z,98216.61
2023-01-06T21:56:51.542Z,98217.37
2023-01-06T21:59:19.195Z,98216.53
2023-01-06T22:01:47.209Z,98213.58
2023-01-06T22:04:15.097Z,98213.58
2023-01-06T22:06:44.057Z,98197.13
2023-01-06T22:09:14.981Z,98194.21
2023-01-06T22:11:44.619Z,98195.27
2023-01-06T22:14:15.037Z,98193.16
2023-01-06T22:16:45.952Z,98194.52
2023-01-06T22:19:18.393Z,98199.64
2023-01-06T22:21:47.230Z,98201.27
2023-01-06T22:24:17.331Z,98195.17
2023-01-06T22:26:45.582Z,98186.41
2023-01-06T22:29:13.279Z,98189.90
2023-01-06T22:31:41.295Z,98186.98
2023-01-06T22:34:08.992Z,98189.94
2023-01-06T22:36:36.966Z,98185.70
2023-01-06T22:39:05.720Z,98194.48
2023-01-06T22:41:34.075Z,98188.69
2023-01-06T22:44:02.013Z,98181.53
2023-01-06T22:46:30.077Z,98178.58
2023-01-06T22:48:57.801Z,98180.43
2023-01-06T22:51:26.922Z,98180.69
2023-01-06T22:53:55.043Z,98182.81
2023-01-06T22:56:22.753Z,98179.41
2023-01-06T22:58:51.130Z,98179.41
2023-01-06T23:01:18.945Z,98182.86
2023-01-06T23:03:46.606Z,98174.90
2023-01-06T23:06:14.967Z,98169.86
2023-01-06T23:08:58.475Z,98181.83
2023-01-06T23:11:17.975Z,98179.74
2023-01-06T23:13:46.960Z,98180.81
2023-01-06T23:16:20.255Z,98180.81
2023-01-06T23:18:49.456Z,98180.02
2023-01-06T23:21:22.337Z,98163.52
2023-01-06T23:23:51.116Z,98150.75
2023-01-06T23:26:28.994Z,98156.85
2023-01-06T23:28:57.758Z,98162.20
2023-01-06T23:31:29.544Z,98168.34
2023-01-06T23:34:01.711Z,98162.53
2023-01-06T23:36:32.779Z,98164.39
2023-01-06T23:39:03.311Z,98166.52
2023-01-06T23:41:36.767Z,98170.19
2023-01-06T23:44:05.992Z,98172.84
2023-01-06T23:46:37.594Z,98177.92
2023-01-06T23:49:06.605Z,98176.86
2023-01-06T23:51:34.742Z,98167.84
2023-01-06T23:54:04.318Z,98167.05
2023-01-06T23:56:35.654Z,98159.68
2023-01-06T23:59:05.922Z,98154.64
